Tropical Cyclones
[Index]
Main Index Home Page Stock Weather Photos Extreme Storms Discussion Storm News and Storm Chasing Reports Tropical Cyclones / Hurricanes / Typhoons Weather Data and Links Wild Fires / Bushfires Weather Observation Techniques Weather Picture Catalogue Tornado Pictures and Reports Stock Video Footage and DVDs for sale
Season 1988-1989 Tropical Cyclone AIVU Track Map
Season 1988-1989 Summaries: [BoM-AU] [JTWC-AU] [JTWC-SIO] [JTWC-SPAC] [JTWC-SH]
<<- Previous TC | JTWC 1988-1989 Season | Next TC ->>

click for intensity scale information  Lat/long Grid: Show Hide

 Date Labels: Show Hide

Joint Typhoon Warning Centre Cyclone Data

Name: AIVU

29 Mar 1989 12:00 UTC to 05 Apr 1989 00:00 UTC

    date/time    lat    long     hPa   cat  kts
1989-03-29 12   11.4   158.2                  25          
1989-03-29 18   11.3   157.8                  25          
1989-03-30 00   11.2   157.4                  25          
1989-03-30 06   11.1   156.9                  25          
1989-03-30 12   11.1   156.4                  25          
1989-03-30 18   11.0   155.8                  25          
1989-03-31 00   10.8   155.2                  25          
1989-03-31 06   10.4   154.4                  25          
1989-03-31 12    9.9   153.8                  25          
1989-03-31 18   10.0   153.2                  25          
1989-04-01 00   10.3   152.7                  35          
1989-04-01 06   11.0   152.4            1     40          
1989-04-01 12   11.8   151.9            1     45          
1989-04-01 18   12.9   151.4            1     50          
1989-04-02 00   13.9   150.8            2     60          
1989-04-02 06   14.9   150.2            2     65          
1989-04-02 12   15.6   149.6            3     75          
1989-04-02 18   16.0   149.4            3     85          
1989-04-03 00   16.4   149.2            4    110          
1989-04-03 06   17.2   149.1            4    115          
1989-04-03 12   17.9   148.8            4    120          
1989-04-03 18   18.5   148.4            4    110          
1989-04-04 00   19.3   147.7            4    100          
1989-04-04 06   20.1   147.0            2     55          
1989-04-04 12   20.4   145.9            1     45          
1989-04-04 18   20.9   145.0                  35          
1989-04-05 00   22.0   144.0                  25          
Winds are 1-min average.

Tropical cyclone tracks developed by Michael Bath using data from the Joint Typhoon Warning Centre Best Tracks and Google Maps.


[Australian Severe Weather index] [Copyright Notice] [Email Contacts] [Search This Site] [Privacy Policy]
Document: tropical_cyclone_aivu.htm Updated: 18 September 2016